createdAt,value
2022-09-21T00:13:47.007Z,10.03
2022-09-21T00:16:16.098Z,12.90
2022-09-21T00:18:43.898Z,11.55
2022-09-21T00:21:17.048Z,9.25
2022-09-21T00:23:44.702Z,12.57
2022-09-21T00:26:30.404Z,11.85
2022-09-21T00:29:00.116Z,10.38
2022-09-21T00:31:29.202Z,12.25
2022-09-21T00:33:56.310Z,14.85
2022-09-21T00:36:24.832Z,9.73
2022-09-21T00:38:54.721Z,9.05
2022-09-21T00:41:21.769Z,10.30
2022-09-21T00:44:16.186Z,12.10
2022-09-21T00:46:45.418Z,21.23
2022-09-21T00:49:13.141Z,11.30
2022-09-21T00:51:40.645Z,14.07
2022-09-21T00:54:15.338Z,9.02
2022-09-21T00:56:44.813Z,11.75
2022-09-21T00:59:13.676Z,12.00
2022-09-21T01:01:43.199Z,9.15
2022-09-21T01:04:20.345Z,7.65
2022-09-21T01:06:48.192Z,10.38
2022-09-21T01:09:16.356Z,8.20
2022-09-21T01:12:01.755Z,7.30
2022-09-21T01:14:31.217Z,5.28
2022-09-21T01:17:24.698Z,10.82
2022-09-21T01:20:20.681Z,7.35
2022-09-21T01:23:24.795Z,9.20
2022-09-21T01:26:01.495Z,7.20
2022-09-21T01:28:48.287Z,7.95
2022-09-21T01:31:22.346Z,6.45
2022-09-21T01:33:54.835Z,6.68
2022-09-21T01:36:26.335Z,5.72
2022-09-21T01:38:59.736Z,7.70
2022-09-21T01:41:30.534Z,5.38
2022-09-21T01:44:08.573Z,8.35
2022-09-21T01:46:37.341Z,8.75
2022-09-21T01:49:13.200Z,8.90
2022-09-21T01:51:46.882Z,5.43
2022-09-21T01:54:22.236Z,7.47
2022-09-21T01:56:58.826Z,9.20
2022-09-21T02:02:14.875Z,6.68
2022-09-21T02:04:42.177Z,6.50
2022-09-21T02:07:09.652Z,9.30
2022-09-21T02:09:38.439Z,4.05
2022-09-21T02:12:05.935Z,4.88
2022-09-21T02:14:34.194Z,4.35
2022-09-21T02:17:39.454Z,6.10
2022-09-21T02:20:24.105Z,4.10
2022-09-21T02:23:09.408Z,6.40
2022-09-21T02:25:50.024Z,4.97
2022-09-21T02:28:25.886Z,5.72
2022-09-21T02:31:01.023Z,7.80
2022-09-21T02:34:05.169Z,4.20
2022-09-21T02:36:40.217Z,5.70
2022-09-21T02:39:14.375Z,5.22
2022-09-21T02:41:56.960Z,4.18
2022-09-21T02:44:48.008Z,8.70
2022-09-21T02:47:22.858Z,5.05
2022-09-21T02:49:54.938Z,3.80
2022-09-21T02:52:22.517Z,7.65
2022-09-21T02:54:52.374Z,4.50
2022-09-21T02:57:22.104Z,3.90
2022-09-21T02:59:50.445Z,4.28
2022-09-21T03:02:17.481Z,4.80
2022-09-21T03:04:50.254Z,3.85
2022-09-21T03:07:18.119Z,3.65
2022-09-21T03:09:45.226Z,3.70
2022-09-21T03:12:12.201Z,3.88
2022-09-21T03:14:39.263Z,8.02
2022-09-21T03:17:06.208Z,5.88
2022-09-21T03:19:33.199Z,5.80
2022-09-21T03:22:00.288Z,4.50
2022-09-21T03:24:45.486Z,5.32
2022-09-21T03:27:14.354Z,4.25
2022-09-21T03:29:41.301Z,4.35
2022-09-21T03:32:08.320Z,4.75
2022-09-21T03:34:35.356Z,3.72
2022-09-21T03:37:05.126Z,4.47
2022-09-21T03:39:32.486Z,3.67
2022-09-21T03:41:59.653Z,2.88
2022-09-21T03:44:27.046Z,3.85
2022-09-21T03:46:54.356Z,3.95
2022-09-21T03:49:21.348Z,4.18
2022-09-21T03:51:48.247Z,3.80
2022-09-21T03:54:15.131Z,6.55
2022-09-21T03:56:42.092Z,4.47
2022-09-21T03:59:13.308Z,3.33
2022-09-21T04:01:41.779Z,5.10
2022-09-21T04:04:09.143Z,8.05
2022-09-21T04:06:36.514Z,4.43
2022-09-21T04:09:03.792Z,6.55
2022-09-21T04:11:33.470Z,5.20
2022-09-21T04:14:00.468Z,4.75
2022-09-21T04:16:28.479Z,5.63
2022-09-21T04:18:55.492Z,4.82
2022-09-21T04:21:24.887Z,4.15
2022-09-21T04:23:51.986Z,4.18
2022-09-21T04:26:25.353Z,2.83
2022-09-21T04:28:52.775Z,4.78
2022-09-21T04:31:20.144Z,4.30
2022-09-21T04:33:52.502Z,4.95
2022-09-21T04:36:24.034Z,2.30
2022-09-21T04:38:52.074Z,4.50
2022-09-21T04:41:19.584Z,2.30
2022-09-21T04:43:48.787Z,4.68
2022-09-21T04:46:17.974Z,12.02
2022-09-21T04:48:45.266Z,3.33
2022-09-21T04:51:14.157Z,5.25
2022-09-21T04:53:42.342Z,5.65
2022-09-21T04:56:10.802Z,8.07
2022-09-21T04:58:37.845Z,6.05
2022-09-21T05:01:06.432Z,8.50
2022-09-21T05:03:33.595Z,5.18
2022-09-21T05:06:00.956Z,4.30
2022-09-21T05:08:46.647Z,9.02
2022-09-21T05:11:18.626Z,6.80
2022-09-21T05:13:45.950Z,5.88
2022-09-21T05:16:13.230Z,6.68
2022-09-21T05:18:40.153Z,4.82
2022-09-21T05:21:07.567Z,6.32
2022-09-21T05:23:34.495Z,7.15
2022-09-21T05:26:01.524Z,24.73
2022-09-21T05:28:29.164Z,9.43
2022-09-21T05:31:17.331Z,8.43
2022-09-21T05:33:52.702Z,5.93
2022-09-21T05:36:38.232Z,5.65
2022-09-21T05:39:05.506Z,12.88
2022-09-21T05:41:32.878Z,8.52
2022-09-21T05:44:00.142Z,7.10
2022-09-21T05:46:43.006Z,7.43
2022-09-21T05:49:20.670Z,4.90
2022-09-21T05:51:47.569Z,3.25
2022-09-21T05:54:52.482Z,4.72
2022-09-21T05:57:46.801Z,7.22
2022-09-21T06:00:16.621Z,5.18
2022-09-21T06:03:04.614Z,3.42
2022-09-21T06:05:31.478Z,3.95
2022-09-21T06:07:58.336Z,8.52
2022-09-21T06:10:27.168Z,5.95
2022-09-21T06:12:53.962Z,5.22
2022-09-21T06:15:20.977Z,5.60
2022-09-21T06:18:06.918Z,4.63
2022-09-21T06:20:34.271Z,6.93
2022-09-21T06:23:09.144Z,4.93
2022-09-21T06:25:36.043Z,9.07
2022-09-21T06:28:04.633Z,5.32
2022-09-21T06:30:35.957Z,5.32
2022-09-21T06:33:04.884Z,5.75
2022-09-21T06:35:33.277Z,5.28
2022-09-21T06:38:05.668Z,5.50
2022-09-21T06:40:34.379Z,5.47
2022-09-21T06:43:03.502Z,6.78
2022-09-21T06:45:31.523Z,5.50
2022-09-21T06:47:58.779Z,9.45
2022-09-21T06:50:26.177Z,5.75
2022-09-21T06:52:53.226Z,8.30
2022-09-21T06:55:20.462Z,5.60
2022-09-21T06:57:47.359Z,5.80
2022-09-21T07:00:14.909Z,6.47
2022-09-21T07:02:45.609Z,5.18
2022-09-21T07:05:13.301Z,5.13
2022-09-21T07:07:40.634Z,4.15
2022-09-21T07:10:14.604Z,6.97
2022-09-21T07:15:30.087Z,5.07
2022-09-21T07:18:05.512Z,4.13
2022-09-21T07:20:32.766Z,4.90
2022-09-21T07:22:59.669Z,8.35
2022-09-21T07:25:34.666Z,5.82
2022-09-21T07:28:01.636Z,5.57
2022-09-21T07:30:28.658Z,5.70
2022-09-21T07:32:55.513Z,8.95
2022-09-21T07:35:22.375Z,4.78
2022-09-21T07:37:49.284Z,6.00
2022-09-21T07:40:16.429Z,6.28
2022-09-21T07:42:44.996Z,4.38
2022-09-21T07:45:11.941Z,4.82
2022-09-21T07:47:38.822Z,4.90
2022-09-21T07:50:06.066Z,4.13
2022-09-21T07:52:33.089Z,5.15
2022-09-21T07:55:06.489Z,8.25
2022-09-21T07:57:51.591Z,7.28
2022-09-21T08:00:18.427Z,4.93
2022-09-21T08:02:47.641Z,3.88
2022-09-21T08:05:15.313Z,3.65
2022-09-21T08:07:42.251Z,3.33
2022-09-21T08:10:09.502Z,3.67
2022-09-21T08:12:36.930Z,4.63
2022-09-21T08:15:04.283Z,3.78
2022-09-21T08:17:31.212Z,3.67
2022-09-21T08:19:58.872Z,5.32
2022-09-21T08:22:26.324Z,2.42
2022-09-21T08:24:53.217Z,2.58
2022-09-21T08:27:20.531Z,2.35
2022-09-21T08:29:47.440Z,3.80
2022-09-21T08:32:33.016Z,3.20
2022-09-21T08:35:01.289Z,2.67
2022-09-21T08:37:28.233Z,1.85
2022-09-21T08:39:55.302Z,4.38
2022-09-21T08:42:39.084Z,2.75
2022-09-21T08:45:14.995Z,2.92
2022-09-21T08:47:49.833Z,1.80
2022-09-21T08:50:22.871Z,2.17
2022-09-21T08:52:54.316Z,3.17
2022-09-21T08:55:21.561Z,2.15
2022-09-21T08:57:48.375Z,3.80
2022-09-21T09:00:17.550Z,2.10
2022-09-21T09:03:17.722Z,3.53
2022-09-21T09:05:48.805Z,1.73
2022-09-21T09:08:59.982Z,3.03
2022-09-21T09:11:57.516Z,3.38
2022-09-21T09:14:27.081Z,2.38
2022-09-21T09:17:21.160Z,2.13
2022-09-21T09:19:55.029Z,1.88
2022-09-21T09:22:29.929Z,3.42
2022-09-21T09:25:01.794Z,2.95
2022-09-21T09:27:36.871Z,2.33
2022-09-21T09:30:20.786Z,2.78
2022-09-21T09:33:12.847Z,2.10
2022-09-21T09:35:39.891Z,4.93
2022-09-21T09:38:28.049Z,5.93
2022-09-21T09:41:03.674Z,4.35
2022-09-21T09:43:39.343Z,4.75
2022-09-21T09:46:13.412Z,4.75
2022-09-21T09:48:47.850Z,3.65
2022-09-21T09:51:19.468Z,4.35
2022-09-21T09:53:46.794Z,2.03
2022-09-21T09:56:14.973Z,2.28
2022-09-21T09:58:49.891Z,4.47
2022-09-21T10:01:44.165Z,2.22
2022-09-21T10:04:15.117Z,2.60
2022-09-21T10:06:46.446Z,5.80
2022-09-21T10:09:32.044Z,2.95
2022-09-21T10:12:16.281Z,4.18
2022-09-21T10:14:51.463Z,2.78
2022-09-21T10:17:19.385Z,3.83
2022-09-21T10:19:46.715Z,4.25
2022-09-21T10:22:19.231Z,3.70
2022-09-21T10:24:51.324Z,3.63
2022-09-21T10:27:25.702Z,4.00
2022-09-21T10:29:52.868Z,5.47
2022-09-21T10:32:22.857Z,7.28
2022-09-21T10:35:12.898Z,3.92
2022-09-21T10:37:45.671Z,7.10
2022-09-21T10:40:21.497Z,5.97
2022-09-21T10:42:50.974Z,7.35
2022-09-21T10:45:23.800Z,3.85
2022-09-21T10:47:57.301Z,3.20
2022-09-21T10:50:39.609Z,5.22
2022-09-21T10:53:09.378Z,3.60
2022-09-21T10:55:52.737Z,4.82
2022-09-21T10:58:31.628Z,3.33
2022-09-21T11:01:12.703Z,3.45
2022-09-21T11:03:41.675Z,9.23
2022-09-21T11:06:24.205Z,3.38
2022-09-21T11:09:00.867Z,6.47
2022-09-21T11:12:05.336Z,10.68
2022-09-21T11:15:05.544Z,9.27
2022-09-21T11:17:42.118Z,9.73
2022-09-21T11:23:12.620Z,5.07
2022-09-21T11:26:11.561Z,8.75
2022-09-21T11:29:00.354Z,5.45
2022-09-21T11:31:44.142Z,5.15
2022-09-21T11:34:31.454Z,7.60
2022-09-21T11:37:13.936Z,6.53
2022-09-21T11:39:43.770Z,8.00
2022-09-21T11:42:11.264Z,8.95
2022-09-21T11:44:44.013Z,10.50
2022-09-21T11:47:48.606Z,11.02
2022-09-21T11:50:37.136Z,6.95
2022-09-21T11:53:30.463Z,10.35
2022-09-21T11:56:31.498Z,8.45
2022-09-21T11:59:39.022Z,10.07
2022-09-21T12:02:24.197Z,7.40
2022-09-21T12:05:15.374Z,8.43
2022-09-21T12:08:00.594Z,10.55
2022-09-21T12:11:01.874Z,8.52
2022-09-21T12:13:51.939Z,10.77
2022-09-21T12:16:45.470Z,12.27
2022-09-21T12:19:30.289Z,8.88
2022-09-21T12:22:19.472Z,9.50
2022-09-21T12:24:57.357Z,11.32
2022-09-21T12:27:39.755Z,9.65
2022-09-21T12:30:19.545Z,8.55
2022-09-21T12:32:56.306Z,11.35
2022-09-21T12:35:36.163Z,9.68
2022-09-21T12:38:30.578Z,9.02
2022-09-21T12:41:05.414Z,12.50
2022-09-21T12:43:50.590Z,7.55
2022-09-21T12:46:23.053Z,8.88
2022-09-21T12:48:50.038Z,9.77
2022-09-21T12:51:30.431Z,7.63
2022-09-21T12:54:14.666Z,7.15
2022-09-21T12:57:23.588Z,9.82
2022-09-21T13:00:09.905Z,13.48
2022-09-21T13:02:48.922Z,11.10
2022-09-21T13:05:34.825Z,13.50
2022-09-21T13:08:10.668Z,8.15
2022-09-21T13:10:40.931Z,9.10
2022-09-21T13:13:34.850Z,11.43
2022-09-21T13:16:04.440Z,13.40
2022-09-21T13:18:40.024Z,7.70
2022-09-21T13:21:34.846Z,9.45
2022-09-21T13:24:04.530Z,9.15
2022-09-21T13:26:39.534Z,8.88
2022-09-21T13:29:22.290Z,8.27
2022-09-21T13:32:22.304Z,8.55
2022-09-21T13:34:51.146Z,10.77
2022-09-21T13:37:20.926Z,5.63
2022-09-21T13:39:50.710Z,6.30
2022-09-21T13:42:29.763Z,6.88
2022-09-21T13:44:58.484Z,5.53
2022-09-21T13:47:34.062Z,5.60
2022-09-21T13:50:11.344Z,6.70
2022-09-21T13:52:52.281Z,8.55
2022-09-21T13:55:32.804Z,9.73
2022-09-21T13:58:06.422Z,10.50
2022-09-21T14:00:50.345Z,8.88
2022-09-21T14:03:38.772Z,12.27
2022-09-21T14:06:12.890Z,10.02
2022-09-21T14:08:52.304Z,13.27
2022-09-21T14:11:33.678Z,9.38
2022-09-21T14:14:12.508Z,10.20
2022-09-21T14:16:39.593Z,9.80
2022-09-21T14:19:18.531Z,11.90
2022-09-21T14:22:03.621Z,8.65
2022-09-21T14:24:43.781Z,8.07
2022-09-21T14:27:19.478Z,7.07
2022-09-21T14:29:55.570Z,5.55
2022-09-21T14:32:25.523Z,6.32
2022-09-21T14:35:01.678Z,9.70
2022-09-21T14:37:43.324Z,11.20
2022-09-21T14:40:32.395Z,11.13
2022-09-21T14:43:02.160Z,7.90
2022-09-21T14:45:56.021Z,9.98
2022-09-21T14:48:38.967Z,13.20
2022-09-21T14:51:36.668Z,9.77
2022-09-21T14:57:12.825Z,8.57
2022-09-21T14:59:47.870Z,8.80
2022-09-21T15:02:42.950Z,8.60
2022-09-21T15:05:10.175Z,9.85
2022-09-21T15:08:08.252Z,9.55
2022-09-21T15:10:57.768Z,8.15
2022-09-21T15:14:06.107Z,7.93
2022-09-21T15:16:38.647Z,9.27
2022-09-21T15:19:26.307Z,7.53
2022-09-21T15:22:10.158Z,7.07
2022-09-21T15:24:37.088Z,7.07
2022-09-21T15:27:16.738Z,8.73
2022-09-21T15:29:53.890Z,7.10
2022-09-21T15:32:41.336Z,8.38
2022-09-21T15:35:32.779Z,6.30
2022-09-21T15:38:01.431Z,7.53
2022-09-21T15:40:33.342Z,8.57
2022-09-21T15:43:12.246Z,8.00
2022-09-21T15:46:04.040Z,8.20
2022-09-21T15:48:34.470Z,6.65
2022-09-21T15:51:24.798Z,10.30
2022-09-21T15:54:06.650Z,8.45
2022-09-21T15:56:40.640Z,8.00
2022-09-21T15:59:10.500Z,11.02
2022-09-21T16:01:44.572Z,9.88
2022-09-21T16:04:21.579Z,12.10
2022-09-21T16:07:07.274Z,9.68
2022-09-21T16:09:45.301Z,9.90
2022-09-21T16:12:40.730Z,9.38
2022-09-21T16:15:13.370Z,9.73
2022-09-21T16:18:03.610Z,9.30
2022-09-21T16:20:45.860Z,15.20
2022-09-21T16:23:15.891Z,8.05
2022-09-21T16:25:43.738Z,11.23
2022-09-21T16:28:19.380Z,12.30
2022-09-21T16:30:55.201Z,11.70
2022-09-21T16:33:42.597Z,9.43
2022-09-21T16:36:38.089Z,10.18
2022-09-21T16:39:12.811Z,10.45
2022-09-21T16:41:47.433Z,8.23
2022-09-21T16:44:23.474Z,9.30
2022-09-21T16:46:56.579Z,8.27
2022-09-21T16:49:29.959Z,8.10
2022-09-21T16:51:57.513Z,5.47
2022-09-21T16:54:25.432Z,5.93
2022-09-21T16:56:54.627Z,8.15
2022-09-21T16:59:23.195Z,7.03
2022-09-21T17:01:56.076Z,5.90
2022-09-21T17:04:26.741Z,8.73
2022-09-21T17:06:55.252Z,9.63
2022-09-21T17:09:31.504Z,9.70
2022-09-21T17:12:01.518Z,9.07
2022-09-21T17:14:35.848Z,14.32
2022-09-21T17:17:24.921Z,15.07
2022-09-21T17:19:53.335Z,15.30
2022-09-21T17:22:20.421Z,12.43
2022-09-21T17:24:51.769Z,13.70
2022-09-21T17:27:21.662Z,12.82
2022-09-21T17:29:50.001Z,11.18
2022-09-21T17:32:21.582Z,8.43
2022-09-21T17:35:14.156Z,8.88
2022-09-21T17:37:40.958Z,9.43
2022-09-21T17:40:10.703Z,10.13
2022-09-21T17:42:46.669Z,7.10
2022-09-21T17:45:24.252Z,9.45
2022-09-21T17:47:54.416Z,7.55
2022-09-21T17:50:26.345Z,10.88
2022-09-21T17:53:13.731Z,9.38
2022-09-21T17:55:48.571Z,8.07
2022-09-21T17:58:57.254Z,10.68
2022-09-21T18:01:31.426Z,13.10
2022-09-21T18:03:58.443Z,15.35
2022-09-21T18:06:26.158Z,15.77
2022-09-21T18:08:54.230Z,14.32
2022-09-21T18:11:49.453Z,13.38
2022-09-21T18:14:35.777Z,16.95
2022-09-21T18:17:33.059Z,18.10
2022-09-21T18:20:44.117Z,17.90
2022-09-21T18:23:32.041Z,19.65
2022-09-21T18:25:59.284Z,17.98
2022-09-21T18:28:46.087Z,15.85
2022-09-21T18:31:42.101Z,16.73
2022-09-21T18:34:15.547Z,15.55
2022-09-21T18:37:12.806Z,15.30
2022-09-21T18:39:57.883Z,16.60
2022-09-21T18:42:41.762Z,21.30
2022-09-21T18:45:20.473Z,17.48
2022-09-21T18:48:13.414Z,15.70
2022-09-21T18:50:51.440Z,21.40
2022-09-21T18:53:26.974Z,23.27
2022-09-21T18:55:54.130Z,24.90
2022-09-21T18:58:21.313Z,24.98
2022-09-21T19:00:48.621Z,23.50
2022-09-21T19:03:18.552Z,22.38
2022-09-21T19:06:10.386Z,21.10
2022-09-21T19:09:01.463Z,19.80
2022-09-21T19:11:37.143Z,20.67
2022-09-21T19:14:15.925Z,20.93
2022-09-21T19:17:06.987Z,19.73
2022-09-21T19:19:41.535Z,19.92
2022-09-21T19:22:35.371Z,21.95
2022-09-21T19:25:24.995Z,15.00
2022-09-21T19:28:08.193Z,17.13
2022-09-21T19:30:35.210Z,15.00
2022-09-21T19:33:32.191Z,12.60
2022-09-21T19:36:05.373Z,12.65
2022-09-21T19:38:34.343Z,13.65
2022-09-21T19:41:06.215Z,12.07
2022-09-21T19:43:54.796Z,11.63
2022-09-21T19:46:36.218Z,10.10
2022-09-21T19:49:14.498Z,10.50
2022-09-21T19:51:48.516Z,12.15
2022-09-21T19:54:37.956Z,11.93
2022-09-21T19:57:41.022Z,10.48
2022-09-21T20:00:14.403Z,11.35
2022-09-21T20:03:09.131Z,10.10
2022-09-21T20:06:00.110Z,9.70
2022-09-21T20:08:55.636Z,10.30
2022-09-21T20:11:41.264Z,11.48
2022-09-21T20:14:23.502Z,9.77
2022-09-21T20:16:54.172Z,9.07
2022-09-21T20:19:36.666Z,9.02
2022-09-21T20:22:15.730Z,8.98
2022-09-21T20:25:09.481Z,9.80
2022-09-21T20:27:40.624Z,9.63
2022-09-21T20:30:10.853Z,9.15
2022-09-21T20:32:40.813Z,7.68
2022-09-21T20:35:20.322Z,16.30
2022-09-21T20:37:47.281Z,9.43
2022-09-21T20:40:15.151Z,9.07
2022-09-21T20:42:42.484Z,8.82
2022-09-21T20:45:11.105Z,8.63
2022-09-21T20:47:38.203Z,12.48
2022-09-21T20:50:37.550Z,10.95
2022-09-21T20:53:04.794Z,11.85
2022-09-21T20:55:31.596Z,10.77
2022-09-21T20:57:58.453Z,11.50
2022-09-21T21:00:25.942Z,10.10
2022-09-21T21:02:52.751Z,13.45
2022-09-21T21:05:19.563Z,12.52
2022-09-21T21:07:46.369Z,14.13
2022-09-21T21:10:14.684Z,16.05
2022-09-21T21:12:42.495Z,15.73
2022-09-21T21:15:11.392Z,18.20
2022-09-21T21:17:38.910Z,18.60
2022-09-21T21:20:07.219Z,15.98
2022-09-21T21:22:34.033Z,16.25
2022-09-21T21:25:00.922Z,15.30
2022-09-21T21:27:28.217Z,15.98
2022-09-21T21:29:56.415Z,15.95
2022-09-21T21:32:25.899Z,18.15
2022-09-21T21:34:54.322Z,16.88
2022-09-21T21:37:24.621Z,16.55
2022-09-21T21:39:52.361Z,19.52
2022-09-21T21:42:20.812Z,15.07
2022-09-21T21:44:49.442Z,27.88
2022-09-21T21:47:38.264Z,24.15
2022-09-21T21:50:03.404Z,17.25
2022-09-21T21:52:30.506Z,15.20
2022-09-21T21:54:57.301Z,16.83
2022-09-21T21:57:24.274Z,15.00
2022-09-21T21:59:51.192Z,16.10
2022-09-21T22:02:18.110Z,20.52
2022-09-21T22:04:45.297Z,15.30
2022-09-21T22:07:16.565Z,15.50
2022-09-21T22:09:43.446Z,15.73
2022-09-21T22:12:12.138Z,18.80
2022-09-21T22:14:39.021Z,18.02
2022-09-21T22:17:05.810Z,18.02
2022-09-21T22:19:33.133Z,18.45
2022-09-21T22:22:00.010Z,18.73
2022-09-21T22:24:26.810Z,17.48
2022-09-21T22:26:53.657Z,18.17
2022-09-21T22:29:20.580Z,16.88
2022-09-21T22:31:49.545Z,13.93
2022-09-21T22:34:17.137Z,14.32
2022-09-21T22:36:44.127Z,12.43
2022-09-21T22:39:12.392Z,11.60
2022-09-21T22:41:41.457Z,15.82
2022-09-21T22:44:09.114Z,16.80
2022-09-21T22:46:36.550Z,16.27
2022-09-21T22:49:04.269Z,13.95
2022-09-21T22:51:31.514Z,14.77
2022-09-21T22:53:58.546Z,14.00
2022-09-21T22:56:28.042Z,11.50
2022-09-21T22:58:59.272Z,17.08
2022-09-21T23:01:28.961Z,13.13
2022-09-21T23:04:01.150Z,12.98
2022-09-21T23:06:31.982Z,11.85
2022-09-21T23:08:59.289Z,13.65
2022-09-21T23:11:35.471Z,14.75
2022-09-21T23:14:02.445Z,16.02
2022-09-21T23:16:30.288Z,14.75
2022-09-21T23:18:58.139Z,15.00
2022-09-21T23:21:27.151Z,16.45
2022-09-21T23:24:02.181Z,14.85
2022-09-21T23:26:31.479Z,14.90
2022-09-21T23:29:01.271Z,14.07
2022-09-21T23:31:29.595Z,15.38
2022-09-21T23:33:59.481Z,11.82
2022-09-21T23:36:28.898Z,9.85
2022-09-21T23:38:56.713Z,13.18
2022-09-21T23:41:29.405Z,13.35
2022-09-21T23:43:57.543Z,10.63
2022-09-21T23:46:30.108Z,11.38
2022-09-21T23:48:57.712Z,9.95
2022-09-21T23:51:25.010Z,11.73
2022-09-21T23:53:52.270Z,9.73
2022-09-21T23:56:21.591Z,9.98
2022-09-21T23:58:49.411Z,12.50
